sensor_id;sensor_type;location;lat;lon;timestamp;pressure;altitude;pressure_sealevel;temperature;humidity
7966;BME280;4028;43.272;26.932;2023-08-01T00:00:48;98714.41;;;20.83;100.00
7966;BME280;4028;43.272;26.932;2023-08-01T00:03:14;98721.41;;;20.84;100.00
7966;BME280;4028;43.272;26.932;2023-08-01T00:05:40;98713.53;;;20.83;100.00
7966;BME280;4028;43.272;26.932;2023-08-01T00:08:10;98717.28;;;20.82;100.00
7966;BME280;4028;43.272;26.932;2023-08-01T00:10:38;98709.44;;;20.80;100.00
7966;BME280;4028;43.272;26.932;2023-08-01T00:13:03;98710.69;;;20.77;100.00
7966;BME280;4028;43.272;26.932;2023-08-01T00:15:29;98717.34;;;20.75;100.00
7966;BME280;4028;43.272;26.932;2023-08-01T00:17:54;98710.34;;;20.74;100.00
7966;BME280;4028;43.272;26.932;2023-08-01T00:20:20;98709.94;;;20.70;100.00
7966;BME280;4028;43.272;26.932;2023-08-01T00:22:45;98711.97;;;20.75;100.00
7966;BME280;4028;43.272;26.932;2023-08-01T00:25:11;98703.56;;;20.65;100.00
7966;BME280;4028;43.272;26.932;2023-08-01T00:27:36;98702.75;;;20.64;100.00
7966;BME280;4028;43.272;26.932;2023-08-01T00:30:02;98706.28;;;20.65;100.00
7966;BME280;4028;43.272;26.932;2023-08-01T00:32:27;98703.56;;;20.65;100.00
7966;BME280;4028;43.272;26.932;2023-08-01T00:34:52;98705.22;;;20.66;100.00
7966;BME280;4028;43.272;26.932;2023-08-01T00:37:18;98695.91;;;20.68;100.00
7966;BME280;4028;43.272;26.932;2023-08-01T00:39:44;98696.09;;;20.67;100.00
7966;BME280;4028;43.272;26.932;2023-08-01T00:42:09;98694.69;;;20.64;100.00
7966;BME280;4028;43.272;26.932;2023-08-01T00:44:34;98695.28;;;20.66;100.00
7966;BME280;4028;43.272;26.932;2023-08-01T00:47:00;98699.03;;;20.65;100.00
7966;BME280;4028;43.272;26.932;2023-08-01T00:49:25;98690.97;;;20.65;100.00
7966;BME280;4028;43.272;26.932;2023-08-01T00:51:51;98701.13;;;20.63;100.00
7966;BME280;4028;43.272;26.932;2023-08-01T00:54:17;98695.94;;;20.62;100.00
7966;BME280;4028;43.272;26.932;2023-08-01T00:56:43;98687.53;;;20.58;100.00
7966;BME280;4028;43.272;26.932;2023-08-01T00:59:10;98689.16;;;20.59;100.00
7966;BME280;4028;43.272;26.932;2023-08-01T01:01:35;98690.22;;;20.58;100.00
7966;BME280;4028;43.272;26.932;2023-08-01T01:04:01;98686.31;;;20.54;100.00
7966;BME280;4028;43.272;26.932;2023-08-01T01:06:38;98682.63;;;20.48;100.00
7966;BME280;4028;43.272;26.932;2023-08-01T01:09:19;98691.06;;;20.52;100.00
7966;BME280;4028;43.272;26.932;2023-08-01T01:11:46;98679.94;;;20.48;100.00
7966;BME280;4028;43.272;26.932;2023-08-01T01:14:11;98679.34;;;20.40;100.00
7966;BME280;4028;43.272;26.932;2023-08-01T01:16:37;98689.06;;;20.41;100.00
7966;BME280;4028;43.272;26.932;2023-08-01T01:19:07;98678.09;;;20.42;100.00
7966;BME280;4028;43.272;26.932;2023-08-01T01:21:35;98681.59;;;20.49;100.00
7966;BME280;4028;43.272;26.932;2023-08-01T01:24:07;98672.50;;;20.44;100.00
7966;BME280;4028;43.272;26.932;2023-08-01T01:26:33;98668.78;;;20.45;100.00
7966;BME280;4028;43.272;26.932;2023-08-01T01:29:00;98673.56;;;20.43;100.00
7966;BME280;4028;43.272;26.932;2023-08-01T01:31:27;98664.28;;;20.39;100.00
7966;BME280;4028;43.272;26.932;2023-08-01T01:33:54;98670.53;;;20.33;100.00
7966;BME280;4028;43.272;26.932;2023-08-01T01:36:20;98670.53;;;20.33;100.00
7966;BME280;4028;43.272;26.932;2023-08-01T01:38:45;98658.97;;;20.32;100.00
7966;BME280;4028;43.272;26.932;2023-08-01T01:41:11;98670.53;;;20.33;100.00
7966;BME280;4028;43.272;26.932;2023-08-01T01:43:36;98673.25;;;20.26;100.00
7966;BME280;4028;43.272;26.932;2023-08-01T01:46:03;98667.44;;;20.29;100.00
7966;BME280;4028;43.272;26.932;2023-08-01T01:48:28;98662.72;;;20.24;100.00
7966;BME280;4028;43.272;26.932;2023-08-01T01:50:54;98667.66;;;20.28;100.00
7966;BME280;4028;43.272;26.932;2023-08-01T01:53:19;98673.47;;;20.24;100.00
7966;BME280;4028;43.272;26.932;2023-08-01T01:55:45;98670.59;;;20.19;100.00
7966;BME280;4028;43.272;26.932;2023-08-01T01:58:10;98677.19;;;20.23;100.00
7966;BME280;4028;43.272;26.932;2023-08-01T02:00:36;98665.84;;;20.21;100.00
7966;BME280;4028;43.272;26.932;2023-08-01T02:03:01;98674.75;;;20.22;100.00
7966;BME280;4028;43.272;26.932;2023-08-01T02:05:28;98677.25;;;20.17;100.00
7966;BME280;4028;43.272;26.932;2023-08-01T02:07:54;98668.19;;;20.11;100.00
7966;BME280;4028;43.272;26.932;2023-08-01T02:10:19;98665.88;;;20.15;100.00
7966;BME280;4028;43.272;26.932;2023-08-01T02:12:45;98674.75;;;20.15;100.00
7966;BME280;4028;43.272;26.932;2023-08-01T02:15:10;98676.84;;;20.13;100.00
7966;BME280;4028;43.272;26.932;2023-08-01T02:17:36;98680.38;;;20.14;100.00
7966;BME280;4028;43.272;26.932;2023-08-01T02:20:01;98682.66;;;20.10;100.00
7966;BME280;4028;43.272;26.932;2023-08-01T02:22:27;98684.28;;;20.11;100.00
7966;BME280;4028;43.272;26.932;2023-08-01T02:24:53;98684.75;;;20.08;100.00
7966;BME280;4028;43.272;26.932;2023-08-01T02:27:18;98687.59;;;20.13;100.00
7966;BME280;4028;43.272;26.932;2023-08-01T02:29:44;98691.53;;;20.11;100.00
7966;BME280;4028;43.272;26.932;2023-08-01T02:32:09;98701.06;;;20.07;100.00
7966;BME280;4028;43.272;26.932;2023-08-01T02:34:35;98700.50;;;19.98;100.00
7966;BME280;4028;43.272;26.932;2023-08-01T02:37:00;98701.28;;;20.05;100.00
7966;BME280;4028;43.272;26.932;2023-08-01T02:39:26;98699.03;;;19.95;100.00
7966;BME280;4028;43.272;26.932;2023-08-01T02:41:51;98703.00;;;19.93;100.00
7966;BME280;4028;43.272;26.932;2023-08-01T02:44:17;98694.72;;;19.94;100.00
7966;BME280;4028;43.272;26.932;2023-08-01T02:46:42;98697.00;;;19.91;100.00
7966;BME280;4028;43.272;26.932;2023-08-01T02:49:08;98698.63;;;19.98;100.00
7966;BME280;4028;43.272;26.932;2023-08-01T02:51:33;98696.81;;;19.92;100.00
7966;BME280;4028;43.272;26.932;2023-08-01T02:53:59;98705.50;;;19.88;100.00
7966;BME280;4028;43.272;26.932;2023-08-01T02:56:24;98700.19;;;19.81;100.00
7966;BME280;4028;43.272;26.932;2023-08-01T02:58:49;98712.75;;;19.81;100.00
7966;BME280;4028;43.272;26.932;2023-08-01T03:01:17;98696.91;;;19.72;100.00
7966;BME280;4028;43.272;26.932;2023-08-01T03:03:42;98709.69;;;19.77;100.00
7966;BME280;4028;43.272;26.932;2023-08-01T03:06:08;98710.94;;;19.74;100.00
7966;BME280;4028;43.272;26.932;2023-08-01T03:08:33;98710.72;;;19.76;100.00
7966;BME280;4028;43.272;26.932;2023-08-01T03:10:59;98709.25;;;19.80;100.00
7966;BME280;4028;43.272;26.932;2023-08-01T03:13:24;98723.06;;;19.84;100.00
7966;BME280;4028;43.272;26.932;2023-08-01T03:15:50;98718.34;;;19.79;100.00
7966;BME280;4028;43.272;26.932;2023-08-01T03:18:15;98717.53;;;19.79;100.00
7966;BME280;4028;43.272;26.932;2023-08-01T03:20:41;98731.34;;;19.76;100.00
7966;BME280;4028;43.272;26.932;2023-08-01T03:23:06;98727.03;;;19.74;100.00
7966;BME280;4028;43.272;26.932;2023-08-01T03:25:32;98732.63;;;19.73;100.00
7966;BME280;4028;43.272;26.932;2023-08-01T03:27:58;98734.88;;;19.76;100.00
7966;BME280;4028;43.272;26.932;2023-08-01T03:30:23;98737.56;;;19.76;100.00
7966;BME280;4028;43.272;26.932;2023-08-01T03:32:49;98732.63;;;19.73;100.00
7966;BME280;4028;43.272;26.932;2023-08-01T03:35:14;98737.78;;;19.74;100.00
7966;BME280;4028;43.272;26.932;2023-08-01T03:37:40;98736.72;;;19.82;100.00
7966;BME280;4028;43.272;26.932;2023-08-01T03:40:06;98742.69;;;19.84;100.00
7966;BME280;4028;43.272;26.932;2023-08-01T03:42:36;98741.22;;;19.88;100.00
7966;BME280;4028;43.272;26.932;2023-08-01T03:45:01;98731.50;;;19.94;100.00
7966;BME280;4028;43.272;26.932;2023-08-01T03:47:27;98741.59;;;19.98;100.00
7966;BME280;4028;43.272;26.932;2023-08-01T03:49:52;98746.31;;;20.03;100.00
7966;BME280;4028;43.272;26.932;2023-08-01T03:52:18;98746.28;;;20.10;100.00
7966;BME280;4028;43.272;26.932;2023-08-01T03:54:44;98752.66;;;20.15;100.00
7966;BME280;4028;43.272;26.932;2023-08-01T03:57:09;98749.78;;;20.17;100.00
7966;BME280;4028;43.272;26.932;2023-08-01T03:59:35;98745.19;;;20.24;100.00
7966;BME280;4028;43.272;26.932;2023-08-01T04:02:01;98741.66;;;20.23;100.00
7966;BME280;4028;43.272;26.932;2023-08-01T04:04:26;98750.72;;;20.29;100.00
7966;BME280;4028;43.272;26.932;2023-08-01T04:06:52;98732.78;;;20.23;100.00
7966;BME280;4028;43.272;26.932;2023-08-01T04:09:17;98747.78;;;20.37;100.00
7966;BME280;4028;43.272;26.932;2023-08-01T04:11:43;98759.72;;;20.41;100.00
7966;BME280;4028;43.272;26.932;2023-08-01T04:14:08;98758.94;;;20.72;100.00
7966;BME280;4028;43.272;26.932;2023-08-01T04:16:34;98751.47;;;20.99;100.00
7966;BME280;4028;43.272;26.932;2023-08-01T04:18:59;98747.63;;;21.57;100.00
7966;BME280;4028;43.272;26.932;2023-08-01T04:21:25;98739.91;;;22.69;100.00
7966;BME280;4028;43.272;26.932;2023-08-01T04:23:50;98727.59;;;23.44;100.00
7966;BME280;4028;43.272;26.932;2023-08-01T04:26:16;98726.06;;;24.00;100.00
7966;BME280;4028;43.272;26.932;2023-08-01T04:28:41;98718.53;;;24.30;100.00
7966;BME280;4028;43.272;26.932;2023-08-01T04:31:06;98710.41;;;24.93;100.00
7966;BME280;4028;43.272;26.932;2023-08-01T04:33:32;98720.66;;;25.07;100.00
7966;BME280;4028;43.272;26.932;2023-08-01T04:35:57;98719.66;;;25.74;100.00
7966;BME280;4028;43.272;26.932;2023-08-01T04:38:23;98712.19;;;26.03;100.00
7966;BME280;4028;43.272;26.932;2023-08-01T04:40:48;98717.75;;;26.18;100.00
7966;BME280;4028;43.272;26.932;2023-08-01T04:43:14;98713.72;;;26.21;100.00
7966;BME280;4028;43.272;26.932;2023-08-01T04:45:39;98719.22;;;26.90;100.00
7966;BME280;4028;43.272;26.932;2023-08-01T04:48:05;98715.63;;;27.64;100.00
7966;BME280;4028;43.272;26.932;2023-08-01T04:50:30;98719.53;;;27.89;100.00
7966;BME280;4028;43.272;26.932;2023-08-01T04:52:56;98721.81;;;28.22;100.00
7966;BME280;4028;43.272;26.932;2023-08-01T04:55:21;98712.75;;;27.91;100.00
7966;BME280;4028;43.272;26.932;2023-08-01T04:57:47;98711.13;;;27.38;100.00
7966;BME280;4028;43.272;26.932;2023-08-01T05:00:13;98719.00;;;26.60;100.00
7966;BME280;4028;43.272;26.932;2023-08-01T05:02:38;98726.25;;;26.00;100.00
7966;BME280;4028;43.272;26.932;2023-08-01T05:05:04;98725.34;;;25.29;100.00
7966;BME280;4028;43.272;26.932;2023-08-01T05:07:30;98730.97;;;24.60;100.00
7966;BME280;4028;43.272;26.932;2023-08-01T05:09:56;98736.97;;;24.05;100.00
7966;BME280;4028;43.272;26.932;2023-08-01T05:12:21;98737.69;;;23.60;100.00
7966;BME280;4028;43.272;26.932;2023-08-01T05:14:47;98746.41;;;23.27;100.00
7966;BME280;4028;43.272;26.932;2023-08-01T05:17:12;98749.69;;;23.05;100.00
7966;BME280;4028;43.272;26.932;2023-08-01T05:19:38;98749.59;;;23.00;100.00
7966;BME280;4028;43.272;26.932;2023-08-01T05:22:03;98747.50;;;23.14;100.00
7966;BME280;4028;43.272;26.932;2023-08-01T05:24:29;98746.41;;;23.15;100.00
7966;BME280;4028;43.272;26.932;2023-08-01T05:26:54;98742.78;;;23.21;100.00
7966;BME280;4028;43.272;26.932;2023-08-01T05:29:20;98747.00;;;23.17;100.00
7966;BME280;4028;43.272;26.932;2023-08-01T05:31:45;98743.25;;;23.18;100.00
7966;BME280;4028;43.272;26.932;2023-08-01T05:34:11;98746.91;;;23.24;100.00
7966;BME280;4028;43.272;26.932;2023-08-01T05:36:36;98750.16;;;23.49;100.00
7966;BME280;4028;43.272;26.932;2023-08-01T05:39:02;98748.75;;;23.70;100.00
7966;BME280;4028;43.272;26.932;2023-08-01T05:41:28;98752.13;;;23.77;100.00
7966;BME280;4028;43.272;26.932;2023-08-01T05:43:54;98750.34;;;23.83;100.00
7966;BME280;4028;43.272;26.932;2023-08-01T05:46:19;98757.59;;;23.94;100.00
7966;BME280;4028;43.272;26.932;2023-08-01T05:48:45;98747.28;;;23.79;100.00
7966;BME280;4028;43.272;26.932;2023-08-01T05:51:11;98755.34;;;24.03;100.00
7966;BME280;4028;43.272;26.932;2023-08-01T05:53:36;98748.50;;;24.41;100.00
7966;BME280;4028;43.272;26.932;2023-08-01T05:56:02;98750.09;;;24.53;100.00
7966;BME280;4028;43.272;26.932;2023-08-01T05:58:27;98754.09;;;24.51;100.00
7966;BME280;4028;43.272;26.932;2023-08-01T06:00:52;98747.13;;;24.55;100.00
7966;BME280;4028;43.272;26.932;2023-08-01T06:03:18;98740.25;;;24.81;100.00
7966;BME280;4028;43.272;26.932;2023-08-01T06:05:43;98740.25;;;24.98;100.00
7966;BME280;4028;43.272;26.932;2023-08-01T06:08:09;98743.78;;;24.81;100.00
7966;BME280;4028;43.272;26.932;2023-08-01T06:10:35;98750.25;;;24.80;100.00
7966;BME280;4028;43.272;26.932;2023-08-01T06:13:01;98742.88;;;24.93;100.00
7966;BME280;4028;43.272;26.932;2023-08-01T06:15:27;98746.75;;;24.80;100.00
7966;BME280;4028;43.272;26.932;2023-08-01T06:17:52;98733.94;;;24.75;100.00
7966;BME280;4028;43.272;26.932;2023-08-01T06:20:18;98724.34;;;25.18;100.00
7966;BME280;4028;43.272;26.932;2023-08-01T06:22:44;98718.09;;;25.34;100.00
7966;BME280;4028;43.272;26.932;2023-08-01T06:25:09;98725.09;;;25.52;100.00
7966;BME280;4028;43.272;26.932;2023-08-01T06:27:35;98718.88;;;25.96;100.00
7966;BME280;4028;43.272;26.932;2023-08-01T06:30:01;98698.06;;;26.01;100.00
7966;BME280;4028;43.272;26.932;2023-08-01T06:32:26;98720.53;;;26.51;100.00
7966;BME280;4028;43.272;26.932;2023-08-01T06:34:52;98699.53;;;27.05;100.00
7966;BME280;4028;43.272;26.932;2023-08-01T06:37:17;98717.31;;;27.23;100.00
7966;BME280;4028;43.272;26.932;2023-08-01T06:39:44;98719.88;;;27.03;100.00
7966;BME280;4028;43.272;26.932;2023-08-01T06:42:09;98720.09;;;26.96;100.00
7966;BME280;4028;43.272;26.932;2023-08-01T06:44:35;98718.25;;;27.07;100.00
7966;BME280;4028;43.272;26.932;2023-08-01T06:47:00;98718.53;;;26.68;100.00
7966;BME280;4028;43.272;26.932;2023-08-01T06:49:26;98718.72;;;26.34;100.00
7966;BME280;4028;43.272;26.932;2023-08-01T06:51:51;98717.69;;;26.40;100.00
7966;BME280;4028;43.272;26.932;2023-08-01T06:54:17;98720.09;;;26.96;100.00
7966;BME280;4028;43.272;26.932;2023-08-01T06:56:42;98709.50;;;27.37;100.00
7966;BME280;4028;43.272;26.932;2023-08-01T06:59:14;98696.94;;;27.78;100.00
7966;BME280;4028;43.272;26.932;2023-08-01T07:01:41;98691.13;;;28.37;100.00
7966;BME280;4028;43.272;26.932;2023-08-01T07:04:11;98693.84;;;28.88;100.00
7966;BME280;4028;43.272;26.932;2023-08-01T07:06:37;98682.38;;;28.86;100.00
7966;BME280;4028;43.272;26.932;2023-08-01T07:09:03;98688.28;;;29.44;100.00
7966;BME280;4028;43.272;26.932;2023-08-01T07:11:28;98692.09;;;29.59;100.00
7966;BME280;4028;43.272;26.932;2023-08-01T07:13:54;98691.44;;;29.77;100.00
7966;BME280;4028;43.272;26.932;2023-08-01T07:16:19;98693.44;;;30.16;100.00
7966;BME280;4028;43.272;26.932;2023-08-01T07:18:45;98687.41;;;30.19;100.00
7966;BME280;4028;43.272;26.932;2023-08-01T07:21:10;98695.41;;;30.05;100.00
7966;BME280;4028;43.272;26.932;2023-08-01T07:23:36;98697.72;;;29.77;100.00
7966;BME280;4028;43.272;26.932;2023-08-01T07:26:02;98695.34;;;29.61;100.00
7966;BME280;4028;43.272;26.932;2023-08-01T07:28:28;98690.50;;;30.02;100.00
7966;BME280;4028;43.272;26.932;2023-08-01T07:31:04;98702.31;;;28.66;100.00
7966;BME280;4028;43.272;26.932;2023-08-01T07:33:31;98707.09;;;28.13;100.00
7966;BME280;4028;43.272;26.932;2023-08-01T07:35:56;98701.53;;;27.72;100.00
7966;BME280;4028;43.272;26.932;2023-08-01T07:38:22;98700.06;;;27.50;100.00
7966;BME280;4028;43.272;26.932;2023-08-01T07:40:47;98703.25;;;26.94;100.00
7966;BME280;4028;43.272;26.932;2023-08-01T07:43:13;98701.16;;;26.69;100.00
7966;BME280;4028;43.272;26.932;2023-08-01T07:45:38;98700.34;;;27.06;100.00
7966;BME280;4028;43.272;26.932;2023-08-01T07:48:04;98690.41;;;27.74;100.00
7966;BME280;4028;43.272;26.932;2023-08-01T07:50:30;98695.75;;;28.37;100.00
7966;BME280;4028;43.272;26.932;2023-08-01T07:52:55;98689.22;;;28.68;100.00
7966;BME280;4028;43.272;26.932;2023-08-01T07:55:21;98691.94;;;29.04;100.00
7966;BME280;4028;43.272;26.932;2023-08-01T07:57:47;98688.75;;;29.67;91.49
7966;BME280;4028;43.272;26.932;2023-08-01T08:00:13;98677.50;;;30.33;84.40
7966;BME280;4028;43.272;26.932;2023-08-01T08:02:41;98689.41;;;30.82;80.97
7966;BME280;4028;43.272;26.932;2023-08-01T08:05:07;98682.50;;;30.89;75.47
7966;BME280;4028;43.272;26.932;2023-08-01T08:07:32;98685.53;;;30.53;77.89
7966;BME280;4028;43.272;26.932;2023-08-01T08:09:58;98680.00;;;29.75;79.65
7966;BME280;4028;43.272;26.932;2023-08-01T08:12:23;98671.19;;;30.38;75.34
7966;BME280;4028;43.272;26.932;2023-08-01T08:14:49;98678.56;;;31.00;82.56
7966;BME280;4028;43.272;26.932;2023-08-01T08:17:14;98675.81;;;31.53;71.62
7966;BME280;4028;43.272;26.932;2023-08-01T08:19:40;98673.44;;;31.23;66.71
7966;BME280;4028;43.272;26.932;2023-08-01T08:22:06;98683.66;;;30.83;66.00
7966;BME280;4028;43.272;26.932;2023-08-01T08:24:32;98674.59;;;30.53;69.53
7966;BME280;4028;43.272;26.932;2023-08-01T08:26:57;98669.78;;;30.40;70.96
7966;BME280;4028;43.272;26.932;2023-08-01T08:29:23;98670.38;;;30.37;78.28
7966;BME280;4028;43.272;26.932;2023-08-01T08:31:48;98675.59;;;29.89;79.67
7966;BME280;4028;43.272;26.932;2023-08-01T08:34:13;98675.94;;;29.67;82.58
7966;BME280;4028;43.272;26.932;2023-08-01T08:36:39;98676.97;;;29.82;89.63
7966;BME280;4028;43.272;26.932;2023-08-01T08:39:04;98665.34;;;30.15;93.25
7966;BME280;4028;43.272;26.932;2023-08-01T08:41:35;98641.69;;;30.69;80.96
7966;BME280;4028;43.272;26.932;2023-08-01T08:44:07;98664.31;;;31.33;67.92
7966;BME280;4028;43.272;26.932;2023-08-01T08:46:34;98661.59;;;31.33;73.51
7966;BME280;4028;43.272;26.932;2023-08-01T08:49:04;98660.41;;;31.39;66.33
7966;BME280;4028;43.272;26.932;2023-08-01T08:51:31;98660.78;;;31.75;62.21
7966;BME280;4028;43.272;26.932;2023-08-01T08:53:57;98656.94;;;31.76;60.63
7966;BME280;4028;43.272;26.932;2023-08-01T08:56:23;98660.50;;;31.52;65.81
7966;BME280;4028;43.272;26.932;2023-08-01T08:58:49;98657.06;;;30.94;65.16
7966;BME280;4028;43.272;26.932;2023-08-01T09:01:15;98661.81;;;30.83;68.76
7966;BME280;4028;43.272;26.932;2023-08-01T09:03:42;98647.41;;;31.25;61.95
7966;BME280;4028;43.272;26.932;2023-08-01T09:06:12;98653.56;;;31.84;60.31
7966;BME280;4028;43.272;26.932;2023-08-01T09:08:40;98649.53;;;32.33;61.73
7966;BME280;4028;43.272;26.932;2023-08-01T09:11:09;98653.97;;;32.29;62.43
7966;BME280;4028;43.272;26.932;2023-08-01T09:13:35;98659.63;;;31.81;63.38
7966;BME280;4028;43.272;26.932;2023-08-01T09:16:02;98651.00;;;31.26;60.71
7966;BME280;4028;43.272;26.932;2023-08-01T09:18:27;98648.06;;;30.25;61.26
7966;BME280;4028;43.272;26.932;2023-08-01T09:20:53;98652.06;;;29.93;70.64
7966;BME280;4028;43.272;26.932;2023-08-01T09:23:18;98653.31;;;29.67;69.13
7966;BME280;4028;43.272;26.932;2023-08-01T09:25:44;98648.00;;;29.31;69.08
7966;BME280;4028;43.272;26.932;2023-08-01T09:28:23;98649.28;;;30.03;64.52
7966;BME280;4028;43.272;26.932;2023-08-01T09:30:54;98628.13;;;30.93;61.27
7966;BME280;4028;43.272;26.932;2023-08-01T09:33:21;98623.66;;;31.26;59.33
7966;BME280;4028;43.272;26.932;2023-08-01T09:35:50;98635.59;;;31.35;56.41
7966;BME280;4028;43.272;26.932;2023-08-01T09:38:15;98624.16;;;30.80;57.71
7966;BME280;4028;43.272;26.932;2023-08-01T09:40:43;98626.13;;;30.40;62.59
7966;BME280;4028;43.272;26.932;2023-08-01T09:43:10;98629.03;;;30.15;64.27
7966;BME280;4028;43.272;26.932;2023-08-01T09:45:36;98626.63;;;29.64;70.98
7966;BME280;4028;43.272;26.932;2023-08-01T09:48:02;98638.66;;;29.58;73.40
7966;BME280;4028;43.272;26.932;2023-08-01T09:50:27;98632.94;;;29.59;76.21
7966;BME280;4028;43.272;26.932;2023-08-01T09:52:53;98630.91;;;29.80;72.46
7966;BME280;4028;43.272;26.932;2023-08-01T09:55:26;98626.88;;;30.12;67.47
7966;BME280;4028;43.272;26.932;2023-08-01T09:57:57;98620.94;;;31.02;66.53
7966;BME280;4028;43.272;26.932;2023-08-01T10:00:25;98617.34;;;31.92;60.66
7966;BME280;4028;43.272;26.932;2023-08-01T10:02:52;98614.34;;;32.45;56.42
7966;BME280;4028;43.272;26.932;2023-08-01T10:05:19;98614.47;;;32.68;55.07
7966;BME280;4028;43.272;26.932;2023-08-01T10:07:45;98609.63;;;32.13;53.06
7966;BME280;4028;43.272;26.932;2023-08-01T10:10:13;98611.72;;;31.17;58.85
7966;BME280;4028;43.272;26.932;2023-08-01T10:12:45;98610.31;;;30.71;65.21
7966;BME280;4028;43.272;26.932;2023-08-01T10:15:14;98614.84;;;30.52;65.18
7966;BME280;4028;43.272;26.932;2023-08-01T10:17:41;98612.03;;;30.28;66.36
7966;BME280;4028;43.272;26.932;2023-08-01T10:20:07;98609.16;;;30.09;66.16
7966;BME280;4028;43.272;26.932;2023-08-01T10:22:33;98601.66;;;29.91;66.63
7966;BME280;4028;43.272;26.932;2023-08-01T10:25:00;98602.47;;;29.91;66.29
7966;BME280;4028;43.272;26.932;2023-08-01T10:27:26;98606.09;;;30.21;63.16
7966;BME280;4028;43.272;26.932;2023-08-01T10:30:03;98592.91;;;30.33;60.16
7966;BME280;4028;43.272;26.932;2023-08-01T10:32:39;98593.00;;;30.52;59.37
7966;BME280;4028;43.272;26.932;2023-08-01T10:35:06;98590.63;;;30.74;58.20
7966;BME280;4028;43.272;26.932;2023-08-01T10:37:45;98596.16;;;30.64;62.38
7966;BME280;4028;43.272;26.932;2023-08-01T10:40:12;98593.63;;;30.44;56.84
7966;BME280;4028;43.272;26.932;2023-08-01T10:42:42;98590.03;;;30.14;62.86
7966;BME280;4028;43.272;26.932;2023-08-01T10:45:22;98584.38;;;30.06;64.45
7966;BME280;4028;43.272;26.932;2023-08-01T10:47:51;98579.63;;;29.82;66.90
7966;BME280;4028;43.272;26.932;2023-08-01T10:50:17;98583.00;;;30.03;71.13
7966;BME280;4028;43.272;26.932;2023-08-01T10:52:43;98569.09;;;30.04;69.85
7966;BME280;4028;43.272;26.932;2023-08-01T10:55:09;98567.47;;;30.03;70.23
7966;BME280;4028;43.272;26.932;2023-08-01T10:57:38;98568.41;;;29.84;67.51
7966;BME280;4028;43.272;26.932;2023-08-01T11:00:05;98559.44;;;30.22;64.21
7966;BME280;4028;43.272;26.932;2023-08-01T11:02:36;98563.19;;;30.55;62.21
7966;BME280;4028;43.272;26.932;2023-08-01T11:05:03;98561.25;;;30.61;58.76
7966;BME280;4028;43.272;26.932;2023-08-01T11:07:29;98549.69;;;30.40;59.71
7966;BME280;4028;43.272;26.932;2023-08-01T11:12:39;98547.19;;;30.15;58.60
7966;BME280;4028;43.272;26.932;2023-08-01T11:15:06;98539.22;;;30.52;59.64
7966;BME280;4028;43.272;26.932;2023-08-01T11:17:34;98542.91;;;31.15;57.17
7966;BME280;4028;43.272;26.932;2023-08-01T11:20:07;98532.59;;;30.59;56.95
7966;BME280;4028;43.272;26.932;2023-08-01T11:22:34;98519.84;;;30.78;57.84
7966;BME280;4028;43.272;26.932;2023-08-01T11:25:00;98523.31;;;31.08;56.83
7966;BME280;4028;43.272;26.932;2023-08-01T11:27:26;98528.13;;;31.16;58.01
7966;BME280;4028;43.272;26.932;2023-08-01T11:29:55;98523.97;;;31.61;57.11
7966;BME280;4028;43.272;26.932;2023-08-01T11:32:22;98519.31;;;31.99;57.79
7966;BME280;4028;43.272;26.932;2023-08-01T11:34:57;98513.25;;;32.16;55.17
7966;BME280;4028;43.272;26.932;2023-08-01T11:37:25;98506.97;;;31.26;53.96
7966;BME280;4028;43.272;26.932;2023-08-01T11:39:51;98512.84;;;31.15;56.60
7966;BME280;4028;43.272;26.932;2023-08-01T11:42:17;98513.78;;;31.05;55.66
7966;BME280;4028;43.272;26.932;2023-08-01T11:44:44;98518.59;;;31.13;56.15
7966;BME280;4028;43.272;26.932;2023-08-01T11:47:13;98517.63;;;31.04;55.85
7966;BME280;4028;43.272;26.932;2023-08-01T11:49:45;98512.72;;;30.82;54.96
7966;BME280;4028;43.272;26.932;2023-08-01T11:52:24;98510.75;;;30.88;56.38
7966;BME280;4028;43.272;26.932;2023-08-01T11:54:51;98506.72;;;30.27;56.76
7966;BME280;4028;43.272;26.932;2023-08-01T11:57:16;98503.63;;;30.04;58.21
7966;BME280;4028;43.272;26.932;2023-08-01T11:59:49;98507.94;;;30.16;60.75
7966;BME280;4028;43.272;26.932;2023-08-01T12:02:28;98497.03;;;30.16;61.97
7966;BME280;4028;43.272;26.932;2023-08-01T12:04:56;98486.91;;;30.16;63.17
7966;BME280;4028;43.272;26.932;2023-08-01T12:07:25;98491.41;;;30.31;60.89
7966;BME280;4028;43.272;26.932;2023-08-01T12:09:57;98467.56;;;30.13;62.03
7966;BME280;4028;43.272;26.932;2023-08-01T12:12:25;98481.63;;;30.25;58.03
7966;BME280;4028;43.272;26.932;2023-08-01T12:14:51;98480.84;;;30.48;58.77
7966;BME280;4028;43.272;26.932;2023-08-01T12:17:18;98463.69;;;30.72;59.28
7966;BME280;4028;43.272;26.932;2023-08-01T12:19:44;98473.19;;;30.98;55.61
7966;BME280;4028;43.272;26.932;2023-08-01T12:22:09;98475.00;;;30.84;57.54
7966;BME280;4028;43.272;26.932;2023-08-01T12:24:35;98469.75;;;30.64;58.16
7966;BME280;4028;43.272;26.932;2023-08-01T12:27:12;98460.63;;;30.49;58.70
7966;BME280;4028;43.272;26.932;2023-08-01T12:29:38;98465.09;;;30.64;64.58
7966;BME280;4028;43.272;26.932;2023-08-01T12:32:03;98470.28;;;30.90;58.98
7966;BME280;4028;43.272;26.932;2023-08-01T12:34:29;98466.91;;;31.17;60.61
7966;BME280;4028;43.272;26.932;2023-08-01T12:36:54;98464.88;;;31.27;56.06
7966;BME280;4028;43.272;26.932;2023-08-01T12:39:20;98463.69;;;31.34;54.02
7966;BME280;4028;43.272;26.932;2023-08-01T12:41:46;98451.28;;;31.41;56.05
7966;BME280;4028;43.272;26.932;2023-08-01T12:44:11;98447.00;;;31.68;52.90
7966;BME280;4028;43.272;26.932;2023-08-01T12:46:41;98444.28;;;31.68;56.22
7966;BME280;4028;43.272;26.932;2023-08-01T12:49:06;98448.50;;;31.79;53.09
7966;BME280;4028;43.272;26.932;2023-08-01T12:51:32;98441.03;;;31.66;51.18
7966;BME280;4028;43.272;26.932;2023-08-01T12:53:57;98447.88;;;31.49;52.02
7966;BME280;4028;43.272;26.932;2023-08-01T12:56:23;98438.69;;;31.59;54.04
7966;BME280;4028;43.272;26.932;2023-08-01T12:58:48;98437.09;;;31.72;55.33
7966;BME280;4028;43.272;26.932;2023-08-01T13:01:14;98441.63;;;31.63;50.73
7966;BME280;4028;43.272;26.932;2023-08-01T13:03:39;98437.03;;;31.44;53.34